Time;durP1;ratioP1;P1;durP2;ratioP2;P2;SDS_P1;SDS_P2;PMS_P1;PMS_P2;Temp;Humidity;BMP_temperature;BMP_pressure;BME280_temperature;BME280_humidity;BME280_pressure;Samples;Min_cycle;Max_cycle;Signal;HPM_P1;HPM_P2
2021/11/29 07:01:37;;;;;;;8.60;1.90;;;5.20;99.90;;;;;;5395309;23;20063;-81
2021/11/29 07:04:04;;;;;;;10.40;1.63;;;5.20;99.90;;;;;;4953197;28;20412;-80
2021/11/29 07:06:31;;;;;;;13.38;1.88;;;5.20;99.90;;;;;;4954407;29;20106;-79
2021/11/29 07:08:58;;;;;;;7.35;1.25;;;5.20;99.90;;;;;;4953222;28;20537;-79
2021/11/29 07:11:25;;;;;;;9.65;1.30;;;5.20;99.90;;;;;;4952202;28;20043;-80
2021/11/29 07:13:52;;;;;;;12.05;1.55;;;5.20;99.90;;;;;;4933219;29;20043;-79
2021/11/29 07:16:19;;;;;;;9.60;1.60;;;5.20;99.90;;;;;;4934300;28;20043;-81
2021/11/29 07:18:46;;;;;;;8.63;1.40;;;5.20;99.90;;;;;;4937150;29;20054;-81
2021/11/29 07:21:13;;;;;;;11.65;1.67;;;5.20;99.90;;;;;;4938487;29;20051;-80
2021/11/29 07:23:40;;;;;;;7.40;1.20;;;5.20;99.90;;;;;;4952968;28;20101;-81
2021/11/29 07:26:08;;;;;;;9.85;1.50;;;5.20;99.90;;;;;;4952927;28;20047;-81
2021/11/29 07:28:37;;;;;;;7.85;2.58;;;5.20;99.90;;;;;;4932380;29;20469;-81
2021/11/29 07:31:04;;;;;;;7.68;2.50;;;5.10;99.90;;;;;;4953422;28;20051;-81
2021/11/29 07:33:31;;;;;;;6.70;1.55;;;5.10;99.90;;;;;;4951826;29;20095;-80
2021/11/29 07:35:59;;;;;;;5.82;1.63;;;5.00;99.90;;;;;;4953140;28;20047;-81
2021/11/29 07:38:26;;;;;;;7.88;1.60;;;5.00;99.90;;;;;;4951828;28;20043;-81
2021/11/29 07:40:53;;;;;;;6.35;1.52;;;4.90;99.90;;;;;;4951965;28;20062;-81
2021/11/29 07:43:20;;;;;;;8.00;1.75;;;4.90;99.90;;;;;;4946937;29;20421;-81
2021/11/29 07:45:47;;;;;;;13.18;2.83;;;4.90;99.90;;;;;;4937079;29;20567;-81
2021/11/29 07:48:16;;;;;;;11.45;1.67;;;4.90;99.90;;;;;;4948435;28;20055;-81
2021/11/29 07:50:42;;;;;;;5.72;1.52;;;4.80;99.90;;;;;;4951775;28;20039;-81
2021/11/29 07:53:10;;;;;;;5.18;1.65;;;4.80;99.90;;;;;;4950857;28;20110;-81
2021/11/29 07:55:37;;;;;;;5.00;1.60;;;4.90;99.90;;;;;;4952345;28;20054;-81
2021/11/29 07:58:05;;;;;;;12.63;1.95;;;4.90;99.90;;;;;;4951344;28;20067;-81
2021/11/29 08:00:35;;;;;;;10.33;1.90;;;4.90;99.90;;;;;;4936256;28;20504;-81
2021/11/29 08:03:03;;;;;;;7.10;1.98;;;4.90;99.90;;;;;;4968597;28;20046;-83
2021/11/29 08:05:31;;;;;;;6.15;1.90;;;4.90;99.90;;;;;;4967388;28;20496;-84
2021/11/29 08:08:00;;;;;;;8.25;1.80;;;5.00;99.90;;;;;;4965872;28;20141;-84
2021/11/29 08:10:29;;;;;;;7.47;1.90;;;5.00;99.90;;;;;;4965125;28;20097;-83
2021/11/29 08:12:56;;;;;;;10.40;1.70;;;5.00;99.90;;;;;;4965376;28;20050;-84
2021/11/29 08:15:23;;;;;;;8.95;1.58;;;5.00;99.90;;;;;;4964961;28;20058;-84
2021/11/29 08:17:50;;;;;;;3.63;1.42;;;5.10;99.90;;;;;;4967196;28;20050;-83
2021/11/29 08:20:24;;;;;;;5.70;1.90;;;5.10;99.90;;;;;;4964474;28;20050;-83
2021/11/29 08:22:52;;;;;;;4.90;1.80;;;5.20;99.90;;;;;;4966865;28;20043;-84
2021/11/29 08:25:20;;;;;;;8.55;1.70;;;5.20;99.90;;;;;;4966043;28;20042;-84
2021/11/29 08:27:48;;;;;;;7.82;2.10;;;5.20;99.90;;;;;;4964686;28;20428;-84
2021/11/29 08:30:17;;;;;;;4.43;1.58;;;5.30;99.90;;;;;;4966368;28;20116;-82
2021/11/29 08:32:44;;;;;;;8.13;2.75;;;5.30;99.90;;;;;;4966362;28;20051;-84
2021/11/29 08:35:13;;;;;;;5.10;1.50;;;5.30;99.90;;;;;;4964516;28;20602;-83
2021/11/29 08:37:49;;;;;;;7.45;1.63;;;5.40;99.90;;;;;;4967200;28;20117;-84
2021/11/29 08:40:19;;;;;;;9.35;1.85;;;5.40;99.90;;;;;;4962877;28;20685;-84
2021/11/29 08:42:47;;;;;;;6.70;1.73;;;5.40;99.90;;;;;;4964013;28;20050;-82
2021/11/29 08:45:14;;;;;;;10.32;1.83;;;5.40;99.90;;;;;;4964207;28;20518;-84
2021/11/29 08:47:41;;;;;;;3.60;1.63;;;5.40;99.90;;;;;;4969858;28;20483;-84
2021/11/29 08:50:10;;;;;;;6.40;1.85;;;5.50;99.90;;;;;;4969992;28;20100;-84
2021/11/29 08:52:56;;;;;;;6.03;1.80;;;5.40;99.90;;;;;;4960290;28;20083;-82
2021/11/29 08:55:23;;;;;;;10.75;2.35;;;5.50;99.90;;;;;;4963099;28;20054;-83
2021/11/29 08:57:51;;;;;;;6.28;2.25;;;5.50;99.90;;;;;;4966220;28;20117;-82
2021/11/29 09:00:19;;;;;;;5.60;2.05;;;5.50;99.90;;;;;;4955394;28;20125;-83
2021/11/29 09:02:47;;;;;;;7.07;1.88;;;5.50;99.90;;;;;;4961445;28;20047;-84
2021/11/29 09:05:20;;;;;;;6.90;2.70;;;5.50;99.90;;;;;;4963777;28;20222;-84
2021/11/29 09:07:47;;;;;;;11.05;2.70;;;5.60;99.90;;;;;;4967044;28;20057;-83
2021/11/29 09:10:14;;;;;;;6.97;2.30;;;5.60;99.90;;;;;;4968035;28;20074;-84
2021/11/29 09:12:42;;;;;;;11.02;2.65;;;5.60;99.90;;;;;;4967094;28;20066;-83
2021/11/29 09:15:14;;;;;;;9.05;2.58;;;5.60;99.90;;;;;;4966120;28;20640;-83
2021/11/29 09:17:41;;;;;;;6.10;1.88;;;5.60;99.90;;;;;;4960373;28;20061;-82
2021/11/29 09:20:11;;;;;;;6.72;2.03;;;5.60;99.90;;;;;;4964325;28;20054;-83
2021/11/29 09:22:40;;;;;;;9.98;2.25;;;5.70;99.90;;;;;;4966070;28;20498;-83
2021/11/29 09:25:08;;;;;;;3.10;2.05;;;5.70;99.90;;;;;;4961697;28;20050;-83
2021/11/29 09:27:36;;;;;;;7.75;1.90;;;5.70;99.90;;;;;;4960031;28;20047;-82
2021/11/29 09:30:07;;;;;;;6.17;2.23;;;5.70;99.90;;;;;;4965744;28;20065;-83
2021/11/29 09:32:38;;;;;;;5.43;1.80;;;5.70;99.90;;;;;;4962472;28;20114;-83
2021/11/29 09:35:11;;;;;;;6.38;1.80;;;5.80;99.90;;;;;;4961395;28;20051;-83
2021/11/29 09:37:40;;;;;;;5.30;2.58;;;5.90;99.90;;;;;;4960873;28;20054;-83
2021/11/29 09:40:11;;;;;;;5.97;1.50;;;6.00;99.90;;;;;;4958376;28;20459;-82
2021/11/29 09:42:39;;;;;;;6.47;1.30;;;6.10;99.90;;;;;;4964252;28;20051;-83
2021/11/29 09:45:11;;;;;;;16.65;2.78;;;6.20;99.90;;;;;;4965761;28;20082;-84
2021/11/29 09:47:38;;;;;;;17.90;2.33;;;6.40;99.90;;;;;;4960967;28;20047;-84
2021/11/29 09:50:07;;;;;;;8.57;1.58;;;6.50;99.90;;;;;;4959915;28;20084;-81
2021/11/29 09:52:34;;;;;;;3.75;1.67;;;6.60;99.90;;;;;;4961504;28;20051;-83
2021/11/29 09:55:03;;;;;;;6.80;1.38;;;6.70;99.90;;;;;;4956616;28;20471;-83
2021/11/29 09:57:29;;;;;;;6.20;1.20;;;6.90;99.90;;;;;;4966753;28;20054;-83
2021/11/29 09:59:57;;;;;;;6.00;1.88;;;7.00;99.90;;;;;;4964712;28;20059;-86
2021/11/29 10:02:24;;;;;;;1.92;1.30;;;7.00;99.90;;;;;;4961092;28;20464;-82
2021/11/29 10:04:51;;;;;;;2.78;1.20;;;7.10;99.90;;;;;;4958470;28;20070;-82
2021/11/29 10:07:27;;;;;;;4.88;1.30;;;7.20;99.90;;;;;;4962639;28;20392;-82
2021/11/29 10:09:57;;;;;;;18.38;2.45;;;7.20;99.90;;;;;;4961201;28;20066;-82
2021/11/29 10:12:27;;;;;;;5.13;1.23;;;7.20;99.90;;;;;;4963129;28;20051;-81
2021/11/29 10:15:17;;;;;;;6.68;1.60;;;7.30;99.90;;;;;;4964960;28;20057;-81
2021/11/29 10:17:47;;;;;;;5.93;1.30;;;7.30;99.90;;;;;;4959783;28;20053;-81
2021/11/29 10:20:43;;;;;;;4.35;1.08;;;7.40;99.90;;;;;;4958784;28;20043;-81
2021/11/29 10:23:13;;;;;;;6.57;1.73;;;7.40;99.90;;;;;;4960906;28;21079;-81
2021/11/29 10:25:44;;;;;;;2.90;1.10;;;7.50;99.90;;;;;;4964121;28;20058;-80
2021/11/29 10:28:27;;;;;;;5.93;1.25;;;7.60;99.90;;;;;;4965779;28;20164;-81
2021/11/29 10:31:38;;;;;;;5.38;1.20;;;7.60;99.90;;;;;;4960931;28;20468;-81
2021/11/29 10:34:07;;;;;;;6.15;1.38;;;7.70;99.90;;;;;;4965707;28;20129;-81
2021/11/29 10:36:47;;;;;;;6.95;1.40;;;7.80;99.90;;;;;;4959485;28;20086;-82
2021/11/29 10:39:21;;;;;;;2.72;1.13;;;7.90;99.90;;;;;;4963431;28;20071;-82
2021/11/29 10:41:51;;;;;;;8.10;1.45;;;7.90;99.90;;;;;;4964911;28;20078;-79
2021/11/29 10:44:20;;;;;;;4.75;2.20;;;8.00;99.90;;;;;;4961120;28;20569;-80
2021/11/29 10:47:10;;;;;;;4.97;1.30;;;8.00;99.90;;;;;;4964378;28;20102;-81
2021/11/29 10:49:46;;;;;;;5.88;1.80;;;8.10;99.90;;;;;;4966234;28;20051;-80
2021/11/29 10:52:19;;;;;;;6.28;2.20;;;8.10;99.90;;;;;;4966576;28;20459;-80
2021/11/29 10:54:46;;;;;;;5.85;1.50;;;8.20;99.90;;;;;;4965509;28;20050;-80
2021/11/29 10:57:15;;;;;;;6.10;1.63;;;8.20;99.90;;;;;;4960168;28;20100;-81
2021/11/29 10:59:46;;;;;;;7.00;1.50;;;8.30;99.90;;;;;;4966935;28;20061;-81
2021/11/29 11:02:26;;;;;;;7.88;1.60;;;8.30;99.90;;;;;;4960944;28;20043;-80
2021/11/29 11:05:08;;;;;;;6.95;1.63;;;8.30;99.90;;;;;;4966741;28;20069;-81
2021/11/29 11:07:37;;;;;;;3.88;1.60;;;8.40;99.90;;;;;;4958344;28;20070;-81
2021/11/29 11:10:12;;;;;;;;;;;8.30;99.90;;;;;;4964094;28;20047;-82
2021/11/29 11:12:40;;;;;;;2.58;1.35;;;8.40;99.90;;;;;;4960581;28;20021;-80
2021/11/29 11:15:15;;;;;;;3.20;1.00;;;8.30;99.90;;;;;;4968580;28;20051;-81
2021/11/29 11:18:01;;;;;;;4.93;1.50;;;8.40;99.90;;;;;;4966489;28;20051;-80
2021/11/29 11:20:28;;;;;;;5.55;1.30;;;8.40;99.90;;;;;;4962082;28;20047;-80
2021/11/29 11:22:59;;;;;;;3.30;1.55;;;8.40;99.90;;;;;;4963032;28;20110;-83
2021/11/29 11:25:31;;;;;;;3.50;1.38;;;8.50;99.90;;;;;;4962761;28;20451;-81
2021/11/29 11:28:11;;;;;;;3.17;1.00;;;8.60;99.90;;;;;;4968352;28;20451;-82
2021/11/29 11:30:43;;;;;;;4.30;0.80;;;8.60;99.90;;;;;;4966186;28;20125;-81
2021/11/29 11:33:17;;;;;;;2.78;0.60;;;8.60;99.90;;;;;;4965405;28;20050;-82
2021/11/29 11:35:48;;;;;;;4.75;1.27;;;8.60;99.90;;;;;;4960861;28;20055;-81
2021/11/29 11:38:25;;;;;;;4.80;1.10;;;8.70;99.90;;;;;;4965578;28;20530;-81
2021/11/29 11:40:56;;;;;;;3.42;1.00;;;8.80;99.90;;;;;;4962436;28;20045;-82
2021/11/29 11:43:25;;;;;;;5.80;1.77;;;8.80;99.90;;;;;;4965433;28;20043;-82
2021/11/29 11:45:54;;;;;;;6.03;1.38;;;8.90;99.90;;;;;;4959859;28;20400;-82
2021/11/29 11:48:21;;;;;;;6.45;1.23;;;9.00;99.90;;;;;;4961551;28;20134;-81
2021/11/29 11:50:53;;;;;;;2.75;1.00;;;9.00;99.90;;;;;;4968126;28;20066;-82
2021/11/29 11:53:22;;;;;;;5.45;1.33;;;9.00;99.90;;;;;;4960850;28;20055;-80
2021/11/29 11:55:50;;;;;;;7.05;1.00;;;9.00;99.90;;;;;;4963549;28;20102;-82
2021/11/29 11:58:21;;;;;;;5.80;0.82;;;9.00;99.90;;;;;;4960779;28;20105;-82
2021/11/29 12:00:54;;;;;;;3.42;0.90;;;9.00;99.90;;;;;;4959147;28;20058;-82
2021/11/29 12:03:29;;;;;;;4.18;0.80;;;9.00;99.90;;;;;;4964260;28;20139;-82
2021/11/29 12:06:00;;;;;;;3.47;0.90;;;9.10;99.90;;;;;;4965413;28;20129;-82
2021/11/29 12:08:40;;;;;;;4.97;1.05;;;9.10;99.90;;;;;;4963089;28;20063;-82
2021/11/29 12:11:23;;;;;;;5.97;1.35;;;9.20;99.90;;;;;;4962392;28;20504;-84
2021/11/29 12:14:12;;;;;;;3.13;0.73;;;9.30;99.90;;;;;;4959913;28;20059;-81
2021/11/29 12:16:44;;;;;;;5.15;0.90;;;9.20;99.90;;;;;;4963675;28;20487;-81
2021/11/29 12:19:27;;;;;;;6.00;0.85;;;9.30;99.90;;;;;;4965731;28;20051;-81
2021/11/29 12:21:57;;;;;;;5.30;0.95;;;9.30;99.90;;;;;;4966300;28;20101;-81
2021/11/29 12:24:27;;;;;;;2.30;0.82;;;9.30;99.90;;;;;;4961331;28;20567;-81
2021/11/29 12:26:54;;;;;;;5.05;0.75;;;9.30;99.90;;;;;;4960248;28;20055;-81
2021/11/29 12:29:21;;;;;;;2.70;0.65;;;9.30;99.90;;;;;;4959320;28;20047;-81
2021/11/29 12:32:08;;;;;;;3.80;0.90;;;9.30;99.90;;;;;;4962712;28;20046;-82
2021/11/29 12:34:48;;;;;;;5.75;0.70;;;9.30;99.90;;;;;;4962046;28;20050;-81
2021/11/29 12:37:21;;;;;;;3.55;1.00;;;9.40;99.90;;;;;;4966704;28;20043;-82
2021/11/29 12:39:56;;;;;;;6.07;0.80;;;9.40;99.90;;;;;;4961092;28;20047;-81
2021/11/29 12:42:28;;;;;;;2.92;0.68;;;9.40;99.90;;;;;;4954305;28;20118;-81
2021/11/29 12:45:07;;;;;;;1.92;0.88;;;9.40;99.90;;;;;;4966745;28;20043;-81
2021/11/29 12:47:51;;;;;;;;;;;9.50;99.90;;;;;;4957702;28;20051;-81
2021/11/29 12:50:39;;;;;;;2.80;0.60;;;9.50;99.90;;;;;;4953514;28;19985;-82
2021/11/29 12:53:42;;;;;;;3.95;1.05;;;9.60;99.90;;;;;;4959184;28;20051;-81
2021/11/29 12:56:11;;;;;;;2.78;0.70;;;9.60;99.90;;;;;;4924673;29;20079;-82
2021/11/29 12:58:39;;;;;;;2.92;0.85;;;9.60;99.90;;;;;;4927578;29;20051;-82
2021/11/29 13:01:06;;;;;;;2.50;0.85;;;9.60;99.90;;;;;;4918027;29;20052;-80
2021/11/29 13:03:41;;;;;;;5.00;1.00;;;9.60;99.90;;;;;;4924786;29;20059;-81
2021/11/29 13:06:09;;;;;;;4.15;0.88;;;9.70;99.90;;;;;;4925769;29;20079;-81
2021/11/29 13:08:43;;;;;;;;;;;9.70;99.90;;;;;;4916508;29;20572;-81
2021/11/29 13:11:27;;;;;;;5.47;0.75;;;9.70;99.90;;;;;;4921503;29;20501;-82
2021/11/29 13:14:03;;;;;;;2.80;0.60;;;9.70;99.90;;;;;;4923687;29;20070;-82
2021/11/29 13:16:46;;;;;;;4.60;0.93;;;9.70;99.90;;;;;;4924899;29;20091;-81
2021/11/29 13:19:46;;;;;;;2.35;0.80;;;9.70;99.90;;;;;;4923888;29;20054;-81
2021/11/29 13:22:14;;;;;;;1.65;0.70;;;9.70;99.90;;;;;;4925793;29;20050;-81
2021/11/29 13:24:50;;;;;;;2.78;0.90;;;9.70;99.90;;;;;;4916826;29;20477;-80
2021/11/29 13:27:24;;;;;;;1.85;0.60;;;9.70;99.90;;;;;;4924260;29;20110;-81
2021/11/29 13:29:57;;;;;;;3.90;0.95;;;9.70;99.90;;;;;;4935228;28;20070;-81
2021/11/29 13:32:39;;;;;;;2.97;0.98;;;9.70;99.90;;;;;;4959139;28;20145;-81
2021/11/29 13:35:08;;;;;;;3.85;0.70;;;9.70;99.90;;;;;;4963453;28;20046;-80
2021/11/29 13:37:38;;;;;;;3.83;0.80;;;9.70;99.90;;;;;;4957124;28;20047;-81
2021/11/29 13:40:06;;;;;;;3.25;0.80;;;9.70;99.90;;;;;;4954104;28;20039;-81
2021/11/29 13:42:54;;;;;;;3.60;1.17;;;9.70;99.90;;;;;;4962706;28;20503;-81
2021/11/29 13:45:27;;;;;;;5.00;0.82;;;9.70;99.90;;;;;;4959675;28;20050;-79
2021/11/29 13:48:00;;;;;;;3.75;1.10;;;9.60;99.90;;;;;;4966282;28;20070;-81
2021/11/29 13:50:29;;;;;;;4.68;1.27;;;9.50;99.90;;;;;;4958511;28;20098;-81
2021/11/29 13:52:59;;;;;;;6.28;1.40;;;9.50;99.90;;;;;;4956300;28;20039;-82
2021/11/29 13:55:34;;;;;;;6.70;1.90;;;9.50;99.90;;;;;;4959083;28;20098;-81
2021/11/29 13:58:17;;;;;;;7.03;3.03;;;9.50;99.90;;;;;;4962614;28;20047;-83
2021/11/29 14:00:48;;;;;;;3.47;1.23;;;9.50;99.90;;;;;;4964563;28;20055;-81
2021/11/29 14:03:23;;;;;;;2.92;1.27;;;9.50;99.90;;;;;;4950840;28;20051;-81
2021/11/29 14:05:53;;;;;;;7.45;1.33;;;9.50;99.90;;;;;;4966392;28;20481;-83
2021/11/29 14:08:28;;;;;;;2.85;1.17;;;9.50;99.90;;;;;;4965006;28;20467;-81
2021/11/29 14:11:01;;;;;;;7.30;4.63;;;9.50;99.90;;;;;;4943766;28;20578;-81
2021/11/29 14:13:28;;;;;;;5.43;1.05;;;9.50;99.90;;;;;;4960073;28;20570;-82
2021/11/29 14:16:13;;;;;;;2.25;0.75;;;9.40;99.90;;;;;;4966469;28;20073;-80
2021/11/29 14:18:47;;;;;;;4.15;0.70;;;9.40;99.90;;;;;;4963742;28;20050;-82
2021/11/29 14:21:26;;;;;;;5.45;1.20;;;9.40;99.90;;;;;;4961246;28;20042;-82
2021/11/29 14:23:54;;;;;;;;;;;9.40;99.90;;;;;;4955876;28;20075;-83
2021/11/29 14:26:42;;;;;;;2.88;0.80;;;9.40;99.90;;;;;;4958531;28;19926;-82
2021/11/29 14:29:12;;;;;;;2.55;0.80;;;9.50;99.90;;;;;;4960658;28;20404;-84
2021/11/29 14:31:42;;;;;;;4.15;0.80;;;9.50;99.90;;;;;;4969307;28;20093;-83
2021/11/29 14:34:14;;;;;;;3.05;0.70;;;9.50;99.90;;;;;;4952413;28;20078;-81
2021/11/29 14:36:46;;;;;;;5.57;1.00;;;9.60;99.90;;;;;;4959242;28;20061;-83
2021/11/29 14:39:47;;;;;;;4.38;0.90;;;9.60;99.90;;;;;;4962975;28;20077;-82
2021/11/29 14:42:19;;;;;;;5.18;1.10;;;9.50;99.90;;;;;;4959478;28;20046;-82
2021/11/29 14:44:57;;;;;;;2.55;1.17;;;9.50;99.90;;;;;;4957988;28;20106;-81
2021/11/29 14:47:30;;;;;;;4.85;1.40;;;9.50;99.90;;;;;;4958302;28;20053;-82
2021/11/29 14:50:18;;;;;;;5.18;1.83;;;9.50;99.90;;;;;;4961997;28;20043;-83
2021/11/29 14:52:50;;;;;;;6.65;2.05;;;9.50;99.90;;;;;;4958730;28;20496;-83
2021/11/29 14:55:21;;;;;;;2.25;1.17;;;9.50;99.90;;;;;;4953729;28;20043;-84
2021/11/29 14:57:48;;;;;;;3.45;1.00;;;9.50;99.90;;;;;;4970261;28;20042;-83
2021/11/29 15:00:18;;;;;;;1.00;0.57;;;9.50;99.90;;;;;;4969129;28;20463;-82
2021/11/29 15:02:46;;;;;;;4.32;0.88;;;9.50;99.90;;;;;;4962763;28;20507;-82
2021/11/29 15:05:18;;;;;;;3.60;1.48;;;9.40;99.90;;;;;;4968559;28;20084;-83
2021/11/29 15:07:46;;;;;;;2.90;0.82;;;9.50;99.90;;;;;;4963150;28;20427;-83
2021/11/29 15:10:21;;;;;;;3.53;1.02;;;9.40;99.90;;;;;;4967440;28;20583;-82
2021/11/29 15:12:54;;;;;;;4.90;1.80;;;9.40;99.90;;;;;;4969536;28;20054;-83
2021/11/29 15:15:35;;;;;;;4.18;1.75;;;9.40;99.90;;;;;;4970103;28;20050;-83
2021/11/29 15:18:05;;;;;;;5.25;1.58;;;9.40;99.90;;;;;;4971966;28;20058;-82
2021/11/29 15:20:43;;;;;;;5.47;1.60;;;9.30;99.90;;;;;;4972080;28;20463;-83
2021/11/29 15:23:12;;;;;;;8.18;2.13;;;9.30;99.90;;;;;;4973154;28;20097;-83
2021/11/29 15:25:41;;;;;;;;;;;9.30;99.90;;;;;;4970929;28;20051;-83
2021/11/29 15:28:19;;;;;;;6.38;2.92;;;9.20;99.90;;;;;;4971347;28;20305;-83
2021/11/29 15:30:53;;;;;;;8.40;3.80;;;9.20;99.90;;;;;;4971543;28;20046;-82
2021/11/29 15:33:32;;;;;;;5.22;3.42;;;9.20;99.90;;;;;;4952566;28;20652;-83
2021/11/29 15:36:04;;;;;;;4.30;2.50;;;9.10;99.90;;;;;;4971340;28;20071;-84
2021/11/29 15:38:36;;;;;;;5.85;1.65;;;9.10;99.90;;;;;;4972758;28;20098;-87
2021/11/29 15:41:07;;;;;;;4.82;2.05;;;9.10;99.90;;;;;;4973619;28;20596;-85
2021/11/29 15:43:40;;;;;;;8.98;2.35;;;9.00;99.90;;;;;;4968180;28;20039;-84
2021/11/29 15:46:11;;;;;;;6.80;3.05;;;9.00;99.90;;;;;;4959909;28;20051;-84
2021/11/29 15:48:45;;;;;;;7.18;2.33;;;9.00;99.90;;;;;;4962815;28;20056;-84
2021/11/29 15:51:17;;;;;;;5.10;2.63;;;8.90;99.90;;;;;;4963119;28;20043;-85
2021/11/29 15:53:46;;;;;;;5.95;2.83;;;8.90;99.90;;;;;;4963268;28;20043;-84
2021/11/29 15:56:15;;;;;;;6.28;3.03;;;8.80;99.90;;;;;;4966919;28;20548;-85
2021/11/29 15:58:44;;;;;;;9.65;3.75;;;8.80;99.90;;;;;;4966451;28;20574;-85
2021/11/29 16:01:15;;;;;;;13.40;4.60;;;8.70;99.90;;;;;;4964556;28;20093;-84
2021/11/29 16:03:44;;;;;;;7.78;3.75;;;8.70;99.90;;;;;;4959413;28;20054;-84
2021/11/29 16:06:12;;;;;;;10.98;4.88;;;8.60;99.90;;;;;;4968921;28;20047;-84
2021/11/29 16:08:40;;;;;;;17.83;7.63;;;8.60;99.90;;;;;;4973236;28;20397;-84
2021/11/29 16:11:07;;;;;;;24.27;14.40;;;8.50;99.90;;;;;;4970890;28;20113;-83
2021/11/29 16:13:34;;;;;;;34.65;17.83;;;8.50;99.90;;;;;;4971454;28;20451;-84
2021/11/29 16:16:01;;;;;;;44.67;24.42;;;8.40;99.90;;;;;;4973186;28;20507;-84
2021/11/29 16:18:30;;;;;;;29.20;17.83;;;8.40;99.90;;;;;;4961460;28;20496;-84
2021/11/29 16:20:57;;;;;;;24.98;15.43;;;8.30;99.90;;;;;;4961016;28;20063;-83
2021/11/29 16:23:28;;;;;;;23.48;13.82;;;8.20;99.90;;;;;;4969021;28;20392;-83
2021/11/29 16:25:57;;;;;;;20.90;11.10;;;8.20;99.90;;;;;;4968707;28;20511;-85
2021/11/29 16:28:25;;;;;;;;;;;8.20;99.90;;;;;;4969721;28;20058;-85
2021/11/29 16:30:52;;;;;;;17.25;8.05;;;8.10;99.90;;;;;;4964780;28;20016;-85
2021/11/29 16:33:24;;;;;;;21.75;7.53;;;8.00;99.90;;;;;;4967299;28;20481;-85
2021/11/29 16:35:53;;;;;;;13.93;7.75;;;8.00;99.90;;;;;;4965624;28;20046;-85
2021/11/29 16:38:20;;;;;;;18.13;7.47;;;7.90;99.90;;;;;;4960408;28;20058;-85
2021/11/29 16:40:51;;;;;;;14.68;5.85;;;7.90;99.90;;;;;;4968293;28;20138;-84
2021/11/29 16:43:19;;;;;;;16.08;6.45;;;7.80;99.90;;;;;;4961805;28;20047;-84
2021/11/29 16:45:47;;;;;;;;;;;7.80;99.90;;;;;;4966090;28;20331;-84
2021/11/29 16:48:16;;;;;;;7.45;3.30;;;7.70;99.90;;;;;;4965299;28;20279;-84
2021/11/29 16:50:44;;;;;;;8.00;3.42;;;7.70;99.90;;;;;;4969798;28;20372;-84
2021/11/29 16:53:17;;;;;;;10.65;3.58;;;7.70;99.90;;;;;;4962186;28;20516;-84
2021/11/29 16:55:45;;;;;;;12.68;5.10;;;7.60;99.90;;;;;;4964597;28;20047;-84
2021/11/29 16:58:13;;;;;;;13.50;5.22;;;7.60;99.90;;;;;;4965305;28;20059;-85
2021/11/29 17:00:40;;;;;;;11.07;4.88;;;7.60;99.90;;;;;;4966667;28;20066;-84
2021/11/29 17:03:08;;;;;;;10.73;4.72;;;7.50;99.90;;;;;;4970114;28;20142;-84
2021/11/29 17:05:36;;;;;;;11.18;4.63;;;7.50;99.90;;;;;;4963679;28;20047;-84
2021/11/29 17:08:11;;;;;;;10.13;5.50;;;7.50;99.90;;;;;;4964292;28;20102;-84
2021/11/29 17:10:42;;;;;;;11.95;5.20;;;7.50;99.90;;;;;;4962207;28;20113;-84
2021/11/29 17:13:11;;;;;;;15.02;5.60;;;7.50;99.90;;;;;;4957224;28;20075;-85
2021/11/29 17:15:42;;;;;;;12.40;6.00;;;7.50;99.90;;;;;;4964164;28;20043;-84
2021/11/29 17:18:09;;;;;;;15.70;6.82;;;7.40;99.90;;;;;;4965933;28;20057;-83
2021/11/29 17:20:36;;;;;;;11.63;6.95;;;7.40;99.90;;;;;;4963823;28;20074;-84
2021/11/29 17:23:05;;;;;;;10.82;6.38;;;7.40;99.90;;;;;;4966028;28;20582;-85
2021/11/29 17:25:34;;;;;;;10.93;6.57;;;7.40;99.90;;;;;;4966915;28;20046;-83
2021/11/29 17:28:07;;;;;;;19.58;10.00;;;7.40;99.90;;;;;;4966666;28;20041;-84
2021/11/29 17:30:35;;;;;;;18.65;8.25;;;7.30;99.90;;;;;;4970701;28;20047;-83
2021/11/29 17:33:02;;;;;;;14.90;8.88;;;7.30;99.90;;;;;;4970942;28;20047;-85
2021/11/29 17:35:29;;;;;;;19.20;10.90;;;7.30;99.90;;;;;;4969501;28;20106;-84
2021/11/29 17:37:57;;;;;;;19.15;11.57;;;7.30;99.90;;;;;;4971656;28;20121;-84
2021/11/29 17:40:24;;;;;;;13.13;7.40;;;7.30;99.90;;;;;;4971190;28;20050;-84
2021/11/29 17:42:51;;;;;;;11.48;6.07;;;7.20;99.90;;;;;;4956343;28;20055;-84
2021/11/29 17:45:21;;;;;;;12.93;5.75;;;7.20;99.90;;;;;;4956258;28;20051;-84
2021/11/29 17:47:49;;;;;;;10.75;5.80;;;7.20;99.90;;;;;;4970439;28;20046;-85
2021/11/29 17:50:18;;;;;;;13.10;6.10;;;7.20;99.90;;;;;;4970706;28;20051;-84
2021/11/29 17:52:46;;;;;;;;;;;7.10;99.90;;;;;;4971352;28;20357;-84
2021/11/29 17:55:14;;;;;;;12.35;6.32;;;7.10;99.90;;;;;;4970473;28;20489;-84
2021/11/29 17:57:44;;;;;;;17.58;6.50;;;7.10;99.90;;;;;;4945912;28;20054;-84
2021/11/29 18:00:15;;;;;;;;;;;7.00;99.90;;;;;;4970045;28;20054;-83
2021/11/29 18:02:42;;;;;;;13.88;6.50;;;7.00;99.90;;;;;;4970309;28;19922;-83
2021/11/29 18:05:10;;;;;;;21.63;9.88;;;6.90;99.90;;;;;;4969469;28;20070;-84
2021/11/29 18:08:05;;;;;;;42.40;18.15;;;6.90;99.90;;;;;;4970880;28;20050;-83
2021/11/29 18:13:18;;;;;;;14.10;6.72;;;6.90;99.90;;;;;;4967132;28;20096;-83
2021/11/29 18:15:45;;;;;;;12.98;5.90;;;6.80;99.90;;;;;;4967596;28;20058;-84
2021/11/29 18:18:13;;;;;;;12.80;5.80;;;6.80;99.90;;;;;;4966608;28;20046;-84
2021/11/29 18:20:41;;;;;;;9.30;4.57;;;6.80;99.90;;;;;;4964176;28;20055;-83
2021/11/29 18:23:08;;;;;;;12.75;5.07;;;6.80;99.90;;;;;;4963575;28;20105;-83
2021/11/29 18:25:37;;;;;;;8.25;4.43;;;6.70;99.90;;;;;;4956157;28;20105;-82
2021/11/29 18:28:05;;;;;;;10.70;4.82;;;6.70;99.90;;;;;;4952562;28;20054;-83
2021/11/29 18:30:33;;;;;;;15.00;5.25;;;6.70;99.90;;;;;;4957290;28;20054;-83
2021/11/29 18:33:00;;;;;;;8.75;4.43;;;6.60;99.90;;;;;;4963740;28;20666;-83
2021/11/29 18:35:27;;;;;;;9.90;4.97;;;6.60;99.90;;;;;;4958792;28;20047;-85
2021/11/29 18:37:55;;;;;;;9.02;5.38;;;6.50;99.90;;;;;;4962219;28;20419;-82
2021/11/29 18:40:23;;;;;;;16.73;5.10;;;6.50;99.90;;;;;;4956246;28;20554;-83
2021/11/29 18:42:50;;;;;;;;;;;6.50;99.90;;;;;;4958354;28;20074;-83
2021/11/29 18:45:18;;;;;;;10.30;6.18;;;6.40;99.90;;;;;;4958429;28;19969;-82
2021/11/29 18:47:45;;;;;;;18.80;12.13;;;6.40;99.90;;;;;;4967789;28;20051;-84
2021/11/29 18:50:16;;;;;;;13.43;7.68;;;6.40;99.90;;;;;;4963225;28;20047;-84
2021/11/29 18:52:43;;;;;;;15.05;6.85;;;6.30;99.90;;;;;;4962476;28;20042;-82
2021/11/29 18:55:10;;;;;;;9.95;5.50;;;6.30;99.90;;;;;;4966254;28;20053;-82
2021/11/29 18:57:38;;;;;;;11.70;5.75;;;6.30;99.90;;;;;;4967076;28;20664;-83
2021/11/29 19:00:09;;;;;;;18.08;6.20;;;6.20;99.90;;;;;;4963225;28;20430;-82
2021/11/29 19:02:37;;;;;;;11.90;6.03;;;6.20;99.90;;;;;;4948153;28;20070;-84
2021/11/29 19:05:11;;;;;;;11.07;5.45;;;6.20;99.90;;;;;;4959463;28;20054;-83
2021/11/29 19:07:39;;;;;;;13.35;5.60;;;6.10;99.90;;;;;;4962304;28;20093;-83
2021/11/29 19:10:07;;;;;;;9.18;5.80;;;6.10;99.90;;;;;;4962516;28;20499;-83
2021/11/29 19:12:34;;;;;;;12.65;6.10;;;6.10;99.90;;;;;;4965163;28;20051;-83
2021/11/29 19:15:02;;;;;;;11.02;7.03;;;6.00;99.90;;;;;;4964234;28;20091;-82
2021/11/29 19:17:29;;;;;;;11.60;7.28;;;6.00;99.90;;;;;;4964142;28;20506;-81
2021/11/29 19:19:56;;;;;;;11.55;5.78;;;6.00;99.90;;;;;;4959580;28;20050;-81
2021/11/29 19:22:23;;;;;;;12.70;6.05;;;6.00;99.90;;;;;;4960299;28;20062;-80
2021/11/29 19:24:51;;;;;;;12.43;6.38;;;6.00;99.90;;;;;;4966227;28;20098;-81
2021/11/29 19:27:18;;;;;;;10.18;6.80;;;5.90;99.90;;;;;;4966049;28;20419;-82
2021/11/29 19:29:45;;;;;;;9.18;6.13;;;5.90;99.90;;;;;;4963324;28;20046;-83
2021/11/29 19:32:15;;;;;;;12.18;8.02;;;5.90;99.90;;;;;;4964844;28;20484;-82
2021/11/29 19:34:42;;;;;;;31.37;22.53;;;5.90;99.90;;;;;;4964214;28;20051;-82
2021/11/29 19:37:09;;;;;;;8.98;6.18;;;5.90;99.90;;;;;;4966667;28;20077;-82
2021/11/29 19:40:00;;;;;;;11.88;5.47;;;5.90;99.90;;;;;;4967931;28;20046;-81
2021/11/29 19:42:27;;;;;;;7.80;4.90;;;5.90;99.90;;;;;;4966059;28;20133;-82
2021/11/29 19:44:54;;;;;;;12.40;4.70;;;5.90;99.90;;;;;;4969599;28;20051;-83
2021/11/29 19:47:21;;;;;;;8.82;4.70;;;6.00;99.90;;;;;;4967392;28;20051;-82
2021/11/29 19:49:49;;;;;;;10.63;4.80;;;6.00;99.90;;;;;;4968845;28;20053;-82
2021/11/29 19:52:16;;;;;;;8.65;5.53;;;5.90;99.90;;;;;;4967674;28;20530;-80
2021/11/29 19:54:43;;;;;;;10.20;5.55;;;6.00;99.90;;;;;;4966587;28;20047;-83
2021/11/29 19:57:10;;;;;;;8.32;5.38;;;6.00;99.90;;;;;;4967328;28;20073;-81
2021/11/29 19:59:38;;;;;;;14.27;7.45;;;6.00;99.90;;;;;;4968364;28;20058;-82
2021/11/29 20:02:05;;;;;;;10.20;5.77;;;6.00;99.90;;;;;;4957787;28;20051;-83
2021/11/29 20:04:34;;;;;;;11.60;5.22;;;6.10;99.90;;;;;;4955465;28;20361;-82
2021/11/29 20:07:01;;;;;;;8.68;4.00;;;6.10;99.90;;;;;;4932312;29;20055;-82
2021/11/29 20:09:28;;;;;;;8.90;3.90;;;6.10;99.90;;;;;;4948086;28;20066;-82
2021/11/29 20:11:55;;;;;;;7.30;3.17;;;6.10;99.90;;;;;;4949904;28;20431;-82
2021/11/29 20:14:22;;;;;;;6.57;3.35;;;6.10;99.90;;;;;;4952512;28;20043;-83
2021/11/29 20:16:54;;;;;;;10.00;3.63;;;6.10;99.90;;;;;;4943968;28;20047;-82
2021/11/29 20:19:21;;;;;;;6.47;3.10;;;6.10;99.90;;;;;;4935302;28;20055;-82